Terminal Aerodrome Forecast
Issued by NWS Duluth, MN

Home | Current Version | Previous Version | Graphics & Text | Print | Product List | Glossary On
Versions: 1 2 3 4 5 6 7 8 9 10 11 12 13 14 15 16 17 18 19 20 21 22 23 24 25 26 27 28 29 30 31 32 33 34 35 36 37 38 39 40 41 42
000
FTUS43 KDLH 020500
TAFDLH
TAF
KDLH 020532Z 0206/0306 21005KT 1/2SM FG OVC002
      TEMPO 0206/0210 1/4SM FG
     FM021300 27003KT 2SM BR OVC004
     FM021500 27005KT 4SM BR BKN005
     FM021700 29005KT 6SM BR OVC025
     FM021800 30004KT P6SM OVC050 PROB30 0221/0224 P6SM -RA OVC050
     FM030000 23002KT 5SM BR OVC100=

USA.gov is the U.S. government's official web portal to all federal, state and local government web resources and services.